createdAt,value
2022-12-08T02:17:42.845Z,24.10
2022-12-08T02:20:19.957Z,19.80
2022-12-08T02:23:01.838Z,12.90
2022-12-08T02:25:38.145Z,11.20
2022-12-08T02:28:14.076Z,10.50
2022-12-08T02:31:24.780Z,11.40
2022-12-08T02:34:35.473Z,12.80
2022-12-08T02:37:10.972Z,10.20
2022-12-08T02:39:42.107Z,12.50
2022-12-08T02:42:13.394Z,12.70
2022-12-08T02:44:53.087Z,11.40
2022-12-08T02:47:20.815Z,10.00
2022-12-08T02:49:47.974Z,9.80
2022-12-08T02:52:15.041Z,11.40
2022-12-08T02:54:51.494Z,11.20
2022-12-08T02:57:23.059Z,13.70
2022-12-08T02:59:50.036Z,14.90
2022-12-08T03:02:24.279Z,42.40
2022-12-08T03:05:10.537Z,12.80
2022-12-08T03:07:49.727Z,11.20
2022-12-08T03:10:21.785Z,11.20
2022-12-08T03:12:50.250Z,11.20
2022-12-08T03:15:18.783Z,13.80
2022-12-08T03:17:47.551Z,11.20
2022-12-08T03:20:17.741Z,10.50
2022-12-08T03:22:44.817Z,10.70
2022-12-08T03:25:13.783Z,14.90
2022-12-08T03:27:40.871Z,12.80
2022-12-08T03:30:09.656Z,9.60
2022-12-08T03:32:40.840Z,10.90
2022-12-08T03:35:19.744Z,9.70
2022-12-08T03:37:47.094Z,11.80
2022-12-08T03:40:16.534Z,12.30
2022-12-08T03:42:43.728Z,13.60
2022-12-08T03:45:11.149Z,11.90
2022-12-08T03:47:38.260Z,9.60
2022-12-08T03:50:06.746Z,10.00
2022-12-08T03:52:34.221Z,8.40
2022-12-08T03:55:01.215Z,10.60
2022-12-08T03:57:28.315Z,10.80
2022-12-08T03:59:55.276Z,14.50
2022-12-08T04:02:23.286Z,10.60
2022-12-08T04:04:50.643Z,12.20
2022-12-08T04:07:17.490Z,11.80
2022-12-08T04:12:14.114Z,14.00
2022-12-08T04:14:41.332Z,15.40
2022-12-08T04:17:08.217Z,13.40
2022-12-08T04:19:35.333Z,10.50
2022-12-08T04:22:02.508Z,8.90
2022-12-08T04:24:29.424Z,8.70
2022-12-08T04:26:56.476Z,12.10
2022-12-08T04:29:24.636Z,13.50
2022-12-08T04:31:51.595Z,11.40
2022-12-08T04:34:18.855Z,12.10
2022-12-08T04:36:45.705Z,12.50
2022-12-08T04:39:12.572Z,9.50
2022-12-08T04:41:39.486Z,13.80
2022-12-08T04:44:06.500Z,8.00
2022-12-08T04:46:34.047Z,9.10
2022-12-08T04:49:01.953Z,8.80
2022-12-08T04:51:28.876Z,10.00
2022-12-08T04:53:55.773Z,9.50
2022-12-08T04:56:23.856Z,9.40
2022-12-08T04:58:51.170Z,10.00
2022-12-08T05:01:18.122Z,7.50
2022-12-08T05:03:45.278Z,9.90
2022-12-08T05:06:13.180Z,10.70
2022-12-08T05:08:40.352Z,9.10
2022-12-08T05:11:09.149Z,8.60
2022-12-08T05:13:36.891Z,9.80
2022-12-08T05:16:05.591Z,10.80
2022-12-08T05:18:32.866Z,11.80
2022-12-08T05:21:00.011Z,10.30
2022-12-08T05:23:27.111Z,11.70
2022-12-08T05:25:55.950Z,9.30
2022-12-08T05:31:13.470Z,12.20
2022-12-08T05:33:40.647Z,12.00
2022-12-08T05:36:08.449Z,9.20
2022-12-08T05:38:35.711Z,8.70
2022-12-08T05:41:02.708Z,10.10
2022-12-08T05:43:29.775Z,13.50
2022-12-08T05:45:56.727Z,11.80
2022-12-08T05:48:23.944Z,12.50
2022-12-08T05:50:51.093Z,10.00
2022-12-08T05:53:18.760Z,11.40
2022-12-08T05:55:46.270Z,14.00
2022-12-08T05:58:15.056Z,10.30
2022-12-08T06:00:42.406Z,12.10
2022-12-08T06:03:11.480Z,13.60
2022-12-08T06:05:40.652Z,8.60
2022-12-08T06:08:07.948Z,13.90
2022-12-08T06:10:43.732Z,12.90
2022-12-08T10:26:01.820Z,8.50
2022-12-08T10:28:28.332Z,9.70
2022-12-08T10:30:54.748Z,10.70
2022-12-08T10:33:21.802Z,8.50
2022-12-08T10:35:49.809Z,10.30
2022-12-08T10:38:18.214Z,12.10
2022-12-08T10:40:45.859Z,12.00
2022-12-08T10:43:18.177Z,17.90
2022-12-08T10:45:44.640Z,15.90
2022-12-08T10:54:33.885Z,14.00
2022-12-08T10:57:01.101Z,13.20
2022-12-08T10:59:28.094Z,15.70
2022-12-08T11:01:56.134Z,14.50
2022-12-08T11:04:23.270Z,14.80
2022-12-08T11:06:50.506Z,20.30
2022-12-08T11:09:17.298Z,19.00
2022-12-08T11:11:57.316Z,26.20
2022-12-08T11:14:26.017Z,21.30
2022-12-08T11:16:54.630Z,14.60
2022-12-08T11:19:22.213Z,13.20
2022-12-08T11:21:49.089Z,10.60
2022-12-08T11:24:16.003Z,12.90
2022-12-08T11:26:50.583Z,15.30
2022-12-08T11:29:17.588Z,14.10
2022-12-08T11:31:50.684Z,12.00
2022-12-08T11:34:21.068Z,11.60
2022-12-08T11:36:48.024Z,9.70
2022-12-08T11:39:14.746Z,9.80
2022-12-08T11:41:42.763Z,12.90
2022-12-08T11:44:28.309Z,11.40
2022-12-08T11:46:59.964Z,13.40
2022-12-08T11:52:42.159Z,12.40
2022-12-08T11:55:27.603Z,12.40
2022-12-08T11:57:55.050Z,17.80
2022-12-08T12:00:22.862Z,14.90
2022-12-08T12:02:53.075Z,12.50
2022-12-08T12:06:12.933Z,10.10
2022-12-08T12:08:46.563Z,12.20
2022-12-08T12:11:58.372Z,11.40
2022-12-08T12:14:55.813Z,12.40
2022-12-08T12:17:39.387Z,10.60
2022-12-08T12:20:14.209Z,9.50
2022-12-08T12:22:42.580Z,11.80
2022-12-08T12:25:17.533Z,12.10
2022-12-08T12:27:44.313Z,11.90
2022-12-08T12:45:52.448Z,25.80
2022-12-08T12:48:24.508Z,16.50
2022-12-08T12:50:52.064Z,17.50
2022-12-08T12:53:19.327Z,15.90
2022-12-08T12:55:46.207Z,14.60
2022-12-08T12:58:41.286Z,13.90
2022-12-08T13:01:14.366Z,9.70
2022-12-08T13:03:47.681Z,7.90
2022-12-08T13:06:15.179Z,11.10
2022-12-08T13:08:56.477Z,14.20
2022-12-08T13:11:24.401Z,20.60
2022-12-08T13:13:57.292Z,17.50
2022-12-08T13:16:25.865Z,16.90
2022-12-08T13:18:56.370Z,13.50
2022-12-08T13:21:24.035Z,13.40
2022-12-08T13:24:17.706Z,13.40
2022-12-08T13:26:51.084Z,11.50
2022-12-08T13:29:26.680Z,15.40
2022-12-08T13:31:57.036Z,17.10
2022-12-08T13:34:42.403Z,20.30
2022-12-08T13:37:12.055Z,17.80
2022-12-08T13:39:38.879Z,17.40
2022-12-08T13:42:11.677Z,12.00
2022-12-08T13:45:20.116Z,14.20
2022-12-08T13:47:54.321Z,18.40
2022-12-08T13:59:07.249Z,16.20
2022-12-08T14:01:34.087Z,14.60
2022-12-08T14:06:53.297Z,12.10
2022-12-08T14:09:25.233Z,17.90
2022-12-08T21:05:53.547Z,54.00
2022-12-08T21:08:20.929Z,46.40
2022-12-08T21:10:55.410Z,55.20
2022-12-08T21:13:22.409Z,33.90
2022-12-08T21:15:49.436Z,17.10
2022-12-08T21:18:17.289Z,12.90
2022-12-08T21:20:44.536Z,34.90
2022-12-08T21:23:12.054Z,34.20
2022-12-08T21:25:41.935Z,40.80
2022-12-08T21:28:10.237Z,33.30
2022-12-08T21:30:39.878Z,40.40
2022-12-08T21:33:06.896Z,31.00
2022-12-08T21:35:34.387Z,24.70
2022-12-08T21:38:01.614Z,22.20
2022-12-08T21:40:29.007Z,38.90
2022-12-08T21:42:56.343Z,33.80
2022-12-08T21:45:23.300Z,31.40
2022-12-08T21:47:50.811Z,49.50
2022-12-08T21:50:18.195Z,89.20
2022-12-08T21:52:47.923Z,31.20
2022-12-08T21:55:16.364Z,30.00
2022-12-08T21:57:43.883Z,35.70
2022-12-08T22:00:15.047Z,22.50
2022-12-08T22:02:42.380Z,22.50
2022-12-08T22:05:09.856Z,20.60
2022-12-08T22:07:39.095Z,22.20
2022-12-08T22:10:08.680Z,19.20
2022-12-08T22:12:36.898Z,27.40
2022-12-08T22:15:05.813Z,23.20
2022-12-08T22:17:36.968Z,21.90
2022-12-08T22:20:06.314Z,22.30
2022-12-08T22:22:35.085Z,20.10
2022-12-08T22:25:03.185Z,31.70
2022-12-08T22:27:30.869Z,30.40
2022-12-08T22:36:10.086Z,24.40
2022-12-08T22:38:38.381Z,19.40
2022-12-08T22:41:06.346Z,24.50
2022-12-08T22:43:34.091Z,22.70
2022-12-08T22:46:01.630Z,23.50
2022-12-08T22:48:29.033Z,27.70
2022-12-08T22:51:00.086Z,25.10
2022-12-08T22:53:27.389Z,45.10
2022-12-08T22:55:54.891Z,38.80
2022-12-08T22:58:21.886Z,36.60
2022-12-08T23:00:49.630Z,19.70
2022-12-08T23:03:17.113Z,21.50
2022-12-08T23:05:44.468Z,21.10
2022-12-08T23:08:14.668Z,23.70
2022-12-08T23:10:41.924Z,33.70
2022-12-08T23:13:10.118Z,28.60
2022-12-08T23:15:37.505Z,24.80
2022-12-08T23:18:05.929Z,18.60
2022-12-08T23:20:33.927Z,20.10
2022-12-08T23:23:00.787Z,15.30
2022-12-08T23:25:27.778Z,16.20
2022-12-08T23:27:55.187Z,16.10
2022-12-08T23:30:22.322Z,14.20
2022-12-08T23:32:49.514Z,11.20
2022-12-08T23:35:16.724Z,12.50
2022-12-08T23:37:43.934Z,10.00
2022-12-08T23:40:11.657Z,11.90
2022-12-08T23:42:40.185Z,12.40
2022-12-08T23:45:08.926Z,11.50
2022-12-08T23:47:37.051Z,10.70
2022-12-08T23:50:05.353Z,10.50
2022-12-08T23:52:33.129Z,11.40
2022-12-08T23:55:00.431Z,11.00
2022-12-08T23:57:27.749Z,11.20
2022-12-08T23:59:55.084Z,13.70
